createdAt,value
2022-11-27T00:04:43.812Z,100.57
2022-11-27T00:09:51.056Z,107.57
2022-11-27T00:14:55.830Z,136.20
2022-11-27T00:20:00.542Z,125.43
2022-11-27T00:25:08.240Z,124.57
2022-11-27T00:30:13.508Z,111.82
2022-11-27T00:35:18.576Z,112.82
2022-11-27T00:40:25.979Z,90.28
2022-11-27T00:45:30.952Z,83.72
2022-11-27T00:50:35.734Z,73.47
2022-11-27T00:55:43.009Z,75.47
2022-11-27T01:00:47.845Z,90.07
2022-11-27T01:05:52.886Z,102.88
2022-11-27T01:11:00.816Z,84.88
2022-11-27T01:16:06.769Z,102.28
2022-11-27T01:21:11.768Z,96.05
2022-11-27T01:26:20.301Z,110.03
2022-11-27T01:31:27.844Z,87.95
2022-11-27T01:36:33.005Z,65.68
2022-11-27T01:41:41.668Z,91.07
2022-11-27T01:46:47.193Z,87.88
2022-11-27T01:51:54.433Z,112.85
2022-11-27T01:57:03.596Z,84.45
2022-11-27T02:02:08.298Z,83.10
2022-11-27T02:07:13.038Z,50.45
2022-11-27T02:12:25.401Z,48.25
2022-11-27T02:17:33.595Z,50.20
2022-11-27T02:22:46.699Z,50.33
2022-11-27T02:28:06.475Z,150.02
2022-11-27T02:33:14.892Z,44.20
2022-11-27T02:38:21.540Z,52.58
2022-11-27T02:43:28.830Z,63.60
2022-11-27T02:48:38.606Z,44.95
2022-11-27T02:53:45.967Z,47.63
2022-11-27T02:58:51.094Z,56.80
2022-11-27T03:03:59.068Z,50.60
2022-11-27T03:09:07.487Z,52.92
2022-11-27T03:14:13.163Z,45.78
2022-11-27T03:19:22.806Z,50.70
2022-11-27T03:24:27.700Z,48.30
2022-11-27T03:29:35.264Z,62.00
2022-11-27T03:34:43.095Z,70.30
2022-11-27T03:39:47.980Z,78.75
2022-11-27T03:44:56.959Z,76.80
2022-11-27T03:50:11.491Z,73.63
2022-11-27T03:55:18.997Z,54.55
2022-11-27T04:00:23.911Z,49.63
2022-11-27T04:05:31.531Z,49.88
2022-11-27T04:10:36.275Z,54.92
2022-11-27T04:15:40.921Z,54.38
2022-11-27T04:20:48.503Z,46.00
2022-11-27T04:25:53.195Z,60.85
2022-11-27T04:30:57.907Z,66.75
2022-11-27T04:36:05.312Z,65.75
2022-11-27T04:41:09.931Z,52.35
2022-11-27T04:46:14.611Z,57.22
2022-11-27T04:51:21.954Z,53.45
2022-11-27T04:56:26.679Z,55.38
2022-11-27T05:01:31.332Z,64.25
2022-11-27T05:06:38.643Z,52.88
2022-11-27T05:11:43.320Z,52.40
2022-11-27T05:16:48.707Z,68.13
2022-11-27T05:21:56.095Z,60.22
2022-11-27T05:27:00.787Z,55.53
2022-11-27T05:32:05.458Z,75.13
2022-11-27T05:37:19.067Z,63.88
2022-11-27T05:42:24.086Z,73.95
2022-11-27T05:47:28.736Z,63.80
2022-11-27T05:52:36.008Z,63.45
2022-11-27T05:57:40.640Z,64.45
2022-11-27T06:02:45.403Z,68.32
2022-11-27T06:07:52.827Z,66.78
2022-11-27T06:12:58.559Z,59.35
2022-11-27T06:18:03.525Z,61.20
2022-11-27T06:23:10.888Z,62.00
2022-11-27T06:28:17.670Z,79.72
2022-11-27T06:33:22.328Z,47.40
2022-11-27T06:38:29.577Z,60.63
2022-11-27T06:43:34.293Z,54.05
2022-11-27T06:48:38.993Z,51.25
2022-11-27T06:53:46.494Z,61.03
2022-11-27T06:58:53.616Z,69.65
2022-11-27T07:03:58.971Z,59.20
2022-11-27T07:09:06.886Z,44.13
2022-11-27T07:14:11.664Z,57.45
2022-11-27T07:19:16.581Z,59.15
2022-11-27T07:24:23.887Z,58.63
2022-11-27T07:29:28.656Z,68.78
2022-11-27T07:34:33.728Z,53.63
2022-11-27T07:40:02.077Z,49.85
2022-11-27T07:45:08.310Z,56.30
2022-11-27T07:50:13.812Z,90.13
2022-11-27T07:55:21.131Z,58.03
2022-11-27T08:00:25.986Z,68.30
2022-11-27T08:05:30.950Z,66.63
2022-11-27T08:10:40.589Z,54.03
2022-11-27T08:15:46.317Z,64.43
2022-11-27T08:20:51.091Z,43.55
2022-11-27T08:25:58.462Z,36.97
2022-11-27T08:31:03.769Z,67.28
2022-11-27T08:36:12.546Z,38.75
2022-11-27T08:41:22.402Z,31.50
2022-11-27T08:46:27.159Z,29.52
2022-11-27T08:51:32.055Z,23.88
2022-11-27T08:56:39.455Z,27.58
2022-11-27T09:01:44.288Z,33.55
2022-11-27T09:06:51.030Z,39.75
2022-11-27T09:12:00.211Z,32.13
2022-11-27T09:17:04.888Z,23.42
2022-11-27T09:22:09.530Z,24.88
2022-11-27T09:27:16.919Z,20.65
2022-11-27T09:32:21.784Z,24.35
2022-11-27T09:37:26.570Z,25.50
2022-11-27T09:42:45.836Z,28.98
2022-11-27T09:47:52.746Z,26.10
2022-11-27T09:52:58.259Z,25.25
2022-11-27T09:58:08.654Z,27.55
2022-11-27T10:08:31.711Z,27.00
2022-11-27T10:13:48.101Z,40.88
2022-11-27T10:18:54.571Z,28.10
2022-11-27T10:24:03.118Z,29.50
2022-11-27T10:29:14.493Z,34.90
2022-11-27T10:34:24.291Z,33.05
2022-11-27T10:39:32.028Z,33.13
2022-11-27T10:44:44.777Z,23.20
2022-11-27T10:49:50.393Z,26.73
2022-11-27T10:54:58.227Z,19.98
2022-11-27T11:00:09.464Z,25.25
2022-11-27T11:10:46.900Z,21.88
2022-11-27T11:15:59.136Z,26.38
2022-11-27T11:21:05.519Z,25.58
2022-11-27T11:26:11.672Z,24.10
2022-11-27T11:31:20.940Z,28.13
2022-11-27T11:36:25.733Z,27.90
2022-11-27T11:41:39.150Z,22.83
2022-11-27T11:46:54.038Z,25.42
2022-11-27T11:52:21.304Z,26.67
2022-11-27T11:57:31.535Z,32.03
2022-11-27T12:02:54.991Z,40.58
2022-11-27T12:08:09.517Z,24.67
2022-11-27T12:13:22.411Z,27.08
2022-11-27T12:18:32.999Z,24.02
2022-11-27T12:23:55.379Z,27.90
2022-11-27T12:29:12.372Z,37.22
2022-11-27T12:34:24.458Z,26.70
2022-11-27T12:39:35.668Z,24.15
2022-11-27T12:44:48.165Z,23.17
2022-11-27T12:50:00.767Z,25.95
2022-11-27T12:55:12.426Z,31.90
2022-11-27T13:00:18.964Z,29.08
2022-11-27T13:05:28.445Z,27.48
2022-11-27T13:10:35.696Z,84.43
2022-11-27T13:15:42.970Z,39.03
2022-11-27T13:20:52.507Z,30.65
2022-11-27T13:25:58.613Z,25.17
2022-11-27T13:31:04.122Z,30.95
2022-11-27T13:36:21.215Z,26.60
2022-11-27T13:41:34.407Z,27.75
2022-11-27T13:46:48.726Z,27.30
2022-11-27T13:52:06.953Z,27.30
2022-11-27T13:57:15.268Z,30.48
2022-11-27T14:02:19.932Z,31.98
2022-11-27T14:07:38.635Z,26.13
2022-11-27T14:12:43.712Z,29.05
2022-11-27T14:17:49.234Z,26.70
2022-11-27T14:23:11.927Z,24.02
2022-11-27T14:28:18.958Z,26.23
2022-11-27T14:33:25.455Z,26.98
2022-11-27T14:38:33.802Z,27.25
2022-11-27T14:43:39.810Z,23.98
2022-11-27T14:48:46.831Z,26.00
2022-11-27T14:53:57.002Z,32.60
2022-11-27T14:59:02.844Z,25.27
2022-11-27T15:04:08.508Z,30.27
2022-11-27T15:09:31.699Z,33.70
2022-11-27T15:14:38.767Z,81.05
2022-11-27T15:19:45.430Z,40.35
2022-11-27T15:25:00.915Z,72.15
2022-11-27T15:30:13.980Z,36.00
2022-11-27T15:35:18.778Z,36.65
2022-11-27T15:40:36.781Z,36.17
2022-11-27T15:45:41.548Z,31.52
2022-11-27T15:50:51.459Z,35.15
2022-11-27T16:01:04.919Z,28.38
2022-11-27T16:06:11.023Z,42.50
2022-11-27T16:11:19.736Z,30.15
2022-11-27T16:16:27.373Z,35.00
2022-11-27T16:21:32.456Z,31.45
2022-11-27T16:26:38.332Z,32.47
2022-11-27T16:31:45.794Z,29.80
2022-11-27T16:36:50.483Z,28.52
2022-11-27T16:41:55.488Z,28.90
2022-11-27T16:47:02.932Z,28.15
2022-11-27T16:52:07.855Z,33.60
2022-11-27T16:57:14.566Z,41.72
2022-11-27T17:02:22.272Z,28.65
2022-11-27T17:07:26.978Z,34.10
2022-11-27T17:12:31.684Z,33.30
2022-11-27T17:17:40.387Z,32.10
2022-11-27T17:22:45.123Z,34.20
2022-11-27T17:27:51.842Z,31.10
2022-11-27T17:32:59.375Z,35.25
2022-11-27T17:38:04.072Z,34.10
2022-11-27T17:43:08.753Z,41.58
2022-11-27T17:48:16.082Z,42.10
2022-11-27T17:53:21.066Z,110.43
2022-11-27T17:58:26.024Z,43.13
2022-11-27T18:03:33.795Z,132.38
2022-11-27T18:08:38.563Z,44.97
2022-11-27T18:13:43.486Z,34.75
2022-11-27T18:18:51.592Z,48.45
2022-11-27T18:29:21.130Z,32.38
2022-11-27T18:34:28.577Z,129.85
2022-11-27T18:39:33.896Z,35.30
2022-11-27T18:44:44.348Z,109.18
2022-11-27T18:49:54.604Z,44.95
2022-11-27T18:55:01.802Z,48.60
2022-11-27T19:00:06.806Z,52.50
2022-11-27T19:05:14.123Z,35.15
2022-11-27T19:10:19.370Z,52.90
2022-11-27T19:15:24.190Z,55.47
2022-11-27T19:20:31.504Z,47.33
2022-11-27T19:25:39.553Z,38.65
2022-11-27T19:30:45.113Z,37.00
2022-11-27T19:35:54.329Z,37.22
2022-11-27T19:46:20.061Z,33.77
2022-11-27T19:51:28.059Z,44.47
2022-11-27T19:56:34.335Z,40.20
2022-11-27T20:01:40.626Z,45.60
2022-11-27T20:06:48.581Z,41.72
2022-11-27T20:11:53.240Z,36.92
2022-11-27T20:22:31.693Z,47.90
2022-11-27T20:27:39.970Z,41.08
2022-11-27T20:49:33.934Z,42.72
2022-11-27T20:54:38.689Z,46.17
2022-11-27T20:59:44.133Z,45.97
2022-11-27T21:04:51.616Z,47.72
2022-11-27T21:09:57.891Z,60.00
2022-11-27T21:15:02.708Z,43.17
2022-11-27T21:20:11.099Z,66.35
2022-11-27T21:25:25.324Z,38.20
2022-11-27T21:30:45.885Z,48.60
2022-11-27T21:35:57.442Z,43.58
2022-11-27T21:41:20.950Z,42.17
2022-11-27T21:46:26.909Z,36.35
2022-11-27T21:51:34.990Z,27.80
2022-11-27T21:56:41.750Z,41.20
2022-11-27T22:01:47.316Z,36.97
2022-11-27T22:06:54.785Z,22.00
2022-11-27T22:11:59.562Z,39.53
2022-11-27T22:17:04.347Z,54.65
2022-11-27T22:22:12.412Z,31.83
2022-11-27T22:27:17.385Z,48.20
2022-11-27T22:32:22.169Z,35.13
2022-11-27T22:37:30.391Z,28.88
2022-11-27T22:42:35.145Z,21.23
2022-11-27T22:47:39.945Z,38.72
2022-11-27T22:52:47.249Z,20.33
2022-11-27T22:57:51.928Z,19.60
2022-11-27T23:02:56.659Z,19.75
2022-11-27T23:08:04.037Z,19.08
2022-11-27T23:13:09.588Z,30.02
2022-11-27T23:18:14.534Z,19.77
2022-11-27T23:23:22.116Z,45.45
2022-11-27T23:28:26.905Z,27.77
2022-11-27T23:33:31.596Z,31.58
2022-11-27T23:38:41.127Z,30.00
2022-11-27T23:43:46.277Z,25.03
2022-11-27T23:48:51.404Z,28.92
2022-11-27T23:53:58.880Z,24.85
2022-11-27T23:59:03.869Z,23.70
